Eftichia — C6ZI4 — position and weather

sailwx.info

Track history (hours):
 
Tides and Currents Weather Stations Pressure Air Temp Water Temp Dewpoint Dewpoint Depression Visibility Wind Speed Wind Dir Waves Ship Positions

Eftichia

Last reported at 2016-Jun-04 11:25 UTC. Time now 2016-Jun-27 15:07 UTC.
Position N 02°01' E 102°12'.
Warning: this ship's position is 23 days out of date.

Length 181 m; draft 6.1 m.

Type: Cargo ship. MMSI: 311033882.

Date/timePositionNaut miles runAvg speedWind from/ knotsBaromVisibWave heightAir tempDewpointWater temp
2016-Jun-04 11:25N 02°01' E 102°12'1011.7
2016-Jun-04 10:32N 01°55' E 102°21'1312.4
2016-Jun-04 09:30N 01°49' E 102°32'1313.5
2016-Jun-04 08:33N 01°43' E 102°43'6613.1
2016-Jun-04 03:33N 01°11' E 103°40'1110.7
2016-Jun-04 02:32N 01°12' E 103°51'6 6.4
2016-Jun-04 01:33N 01°16' E 103°56'1 1.3
2016-Jun-04 00:24N 01°17' E 103°57'0 0.1
2016-Jun-03 23:27N 01°17' E 103°57'0 0.1
2016-Jun-03 22:24N 01°17' E 103°57'0 0.1
2016-Jun-03 21:12N 01°17' E 103°57'0 0.0
2016-Jun-03 20:30N 01°17' E 103°57'0 0.0
2016-Jun-03 19:30N 01°17' E 103°57'0 0.0
2016-Jun-03 18:12N 01°17' E 103°57'0 0.0
2016-Jun-03 17:06N 01°17' E 103°57'0 0.0
2016-Jun-03 16:12N 01°17' E 103°57'0 0.0
2016-Jun-03 15:30N 01°17' E 103°57'0 0.1
2016-Jun-03 14:33N 01°17' E 103°57'2 1.8
2016-Jun-03 13:34N 01°16' E 103°59'8 8.0
2016-Jun-03 12:32N 01°17' E 104°07'  
Track history (hours):
 
Tides and Currents Weather Stations Pressure Air Temp Water Temp Dewpoint Dewpoint Depression Visibility Wind Speed Wind Dir Waves Ship Positions

Eftichia

Last reported at 2016-Jun-04 11:25 UTC. Time now 2016-Jun-27 15:07 UTC.
Position N 02°01' E 102°12'.
Warning: this ship's position is 23 days out of date.

Length 181 m; draft 6.1 m.

Type: Cargo ship. MMSI: 311033882.

Date/timePositionNaut miles runAvg speedWind from/ knotsBaromVisibWave heightAir tempDewpointWater temp
2016-Jun-04 11:25N 02°01' E 102°12'1011.7
2016-Jun-04 10:32N 01°55' E 102°21'1312.4
2016-Jun-04 09:30N 01°49' E 102°32'1313.5
2016-Jun-04 08:33N 01°43' E 102°43'6613.1
2016-Jun-04 03:33N 01°11' E 103°40'1110.7
2016-Jun-04 02:32N 01°12' E 103°51'6 6.4
2016-Jun-04 01:33N 01°16' E 103°56'1 1.3
2016-Jun-04 00:24N 01°17' E 103°57'0 0.1
2016-Jun-03 23:27N 01°17' E 103°57'0 0.1
2016-Jun-03 22:24N 01°17' E 103°57'0 0.1
2016-Jun-03 21:12N 01°17' E 103°57'0 0.0
2016-Jun-03 20:30N 01°17' E 103°57'0 0.0
2016-Jun-03 19:30N 01°17' E 103°57'0 0.0
2016-Jun-03 18:12N 01°17' E 103°57'0 0.0
2016-Jun-03 17:06N 01°17' E 103°57'0 0.0
2016-Jun-03 16:12N 01°17' E 103°57'0 0.0
2016-Jun-03 15:30N 01°17' E 103°57'0 0.1
2016-Jun-03 14:33N 01°17' E 103°57'2 1.8
2016-Jun-03 13:34N 01°16' E 103°59'8 8.0
2016-Jun-03 12:32N 01°17' E 104°07'  

Dump ship's entire track history